Windley Key, Florida
Current Conditions -  °F | °C
As of 8:53 AM on Thursday 23 Oct 2014 (Local Time) from KMTH Reporting Station
Few Clouds Few Clouds  
Wind Chill: 77°   Ceiling: Unl
Heat Index: 78°   Visibility: 10mi
Dew Point: 76°   Wind: 6mph
Humidity: 96%   Direction: 90°E
Pressure: 29.88"   Gusts: NA
Location:  24.8649°N, 80.7192°W
Report Text: KMTH 231253Z AUTO 09005KT 10SM FEW015 25/24 A2988 RMK AO2 SLP117 T02500244 $
Loading
Personal Weather Stations






























Interactive Weather Map
Tropical Storm Tracking
New forecast layout! Learn more

10-Day Weather Forecast

Advertisements
Track Severe Weather on mobile